sensor_id;sensor_type;location;lat;lon;timestamp;P1;durP1;ratioP1;P2;durP2;ratioP2
76735;SDS011;65666;44.498;0.166;2023-04-25T14:54:14;6.40;;;2.40;;
76735;SDS011;65666;44.498;0.166;2023-04-25T14:57:19;12.00;;;2.63;;
76735;SDS011;65666;44.498;0.166;2023-04-25T15:02:51;4.13;;;2.50;;
76735;SDS011;65666;44.498;0.166;2023-04-25T15:08:24;6.63;;;2.30;;
76735;SDS011;65666;44.498;0.166;2023-04-25T15:13:56;2.77;;;1.93;;
76735;SDS011;65666;44.498;0.166;2023-04-25T15:19:30;2.10;;;1.73;;
76735;SDS011;65666;44.498;0.166;2023-04-25T15:25:03;2.37;;;2.17;;
76735;SDS011;65666;44.498;0.166;2023-04-25T15:30:36;2.37;;;1.77;;
76735;SDS011;65666;44.498;0.166;2023-04-25T15:36:08;4.23;;;2.20;;
76735;SDS011;65666;44.498;0.166;2023-04-25T15:41:41;3.53;;;1.80;;
76735;SDS011;65666;44.498;0.166;2023-04-25T15:47:15;6.63;;;2.40;;
76735;SDS011;65666;44.498;0.166;2023-04-25T15:52:47;2.23;;;2.03;;
76735;SDS011;65666;44.498;0.166;2023-04-25T15:58:21;1.70;;;1.60;;
76735;SDS011;65666;44.498;0.166;2023-04-25T16:03:54;4.90;;;2.30;;
76735;SDS011;65666;44.498;0.166;2023-04-25T16:09:25;2.13;;;1.93;;
76735;SDS011;65666;44.498;0.166;2023-04-25T16:14:58;4.60;;;2.50;;
76735;SDS011;65666;44.498;0.166;2023-04-25T16:20:31;3.37;;;2.23;;
76735;SDS011;65666;44.498;0.166;2023-04-25T16:26:03;4.67;;;2.80;;
76735;SDS011;65666;44.498;0.166;2023-04-25T16:31:36;4.63;;;2.87;;
76735;SDS011;65666;44.498;0.166;2023-04-25T16:37:08;4.80;;;3.13;;
76735;SDS011;65666;44.498;0.166;2023-04-25T16:42:42;2.60;;;2.30;;
76735;SDS011;65666;44.498;0.166;2023-04-25T16:48:15;3.97;;;2.80;;
76735;SDS011;65666;44.498;0.166;2023-04-25T16:53:48;4.67;;;2.43;;
76735;SDS011;65666;44.498;0.166;2023-04-25T16:59:21;5.40;;;2.53;;
76735;SDS011;65666;44.498;0.166;2023-04-25T17:04:54;7.17;;;2.60;;
76735;SDS011;65666;44.498;0.166;2023-04-25T17:10:27;4.07;;;2.40;;
76735;SDS011;65666;44.498;0.166;2023-04-25T17:15:59;3.67;;;2.37;;
76735;SDS011;65666;44.498;0.166;2023-04-25T17:21:32;3.97;;;2.43;;
76735;SDS011;65666;44.498;0.166;2023-04-25T17:27:04;3.13;;;2.50;;
76735;SDS011;65666;44.498;0.166;2023-04-25T17:32:37;4.37;;;2.43;;
76735;SDS011;65666;44.498;0.166;2023-04-25T17:38:10;5.60;;;2.50;;
76735;SDS011;65666;44.498;0.166;2023-04-25T17:43:43;3.80;;;2.17;;
76735;SDS011;65666;44.498;0.166;2023-04-25T17:49:15;3.80;;;2.40;;
76735;SDS011;65666;44.498;0.166;2023-04-25T17:54:49;3.63;;;2.77;;
76735;SDS011;65666;44.498;0.166;2023-04-25T18:00:22;3.10;;;2.53;;
76735;SDS011;65666;44.498;0.166;2023-04-25T18:22:33;5.73;;;3.30;;
76735;SDS011;65666;44.498;0.166;2023-04-25T18:28:05;6.47;;;3.07;;
76735;SDS011;65666;44.498;0.166;2023-04-25T18:33:38;3.63;;;3.00;;
76735;SDS011;65666;44.498;0.166;2023-04-25T18:39:10;6.07;;;3.10;;
76735;SDS011;65666;44.498;0.166;2023-04-25T18:44:42;5.30;;;2.67;;
76735;SDS011;65666;44.498;0.166;2023-04-25T18:50:14;5.63;;;2.70;;
76735;SDS011;65666;44.498;0.166;2023-04-25T18:55:47;5.33;;;3.07;;
76735;SDS011;65666;44.498;0.166;2023-04-25T19:01:20;3.83;;;3.40;;
76735;SDS011;65666;44.498;0.166;2023-04-25T19:06:52;6.50;;;4.20;;
76735;SDS011;65666;44.498;0.166;2023-04-25T19:12:26;8.77;;;3.63;;
76735;SDS011;65666;44.498;0.166;2023-04-25T19:17:58;6.47;;;4.10;;
76735;SDS011;65666;44.498;0.166;2023-04-25T19:23:31;4.43;;;3.43;;
76735;SDS011;65666;44.498;0.166;2023-04-25T19:29:05;5.40;;;3.80;;
76735;SDS011;65666;44.498;0.166;2023-04-25T19:34:38;6.77;;;4.20;;
76735;SDS011;65666;44.498;0.166;2023-04-25T19:40:12;6.33;;;4.33;;
76735;SDS011;65666;44.498;0.166;2023-04-25T19:45:44;7.57;;;4.30;;
76735;SDS011;65666;44.498;0.166;2023-04-25T19:51:16;4.77;;;4.20;;
76735;SDS011;65666;44.498;0.166;2023-04-25T19:56:48;7.63;;;4.23;;
76735;SDS011;65666;44.498;0.166;2023-04-25T20:02:21;8.60;;;4.40;;
76735;SDS011;65666;44.498;0.166;2023-04-25T20:07:53;9.23;;;4.70;;
76735;SDS011;65666;44.498;0.166;2023-04-25T20:13:26;7.63;;;4.63;;
76735;SDS011;65666;44.498;0.166;2023-04-25T20:18:58;7.07;;;5.33;;
76735;SDS011;65666;44.498;0.166;2023-04-25T20:24:30;9.13;;;5.80;;
76735;SDS011;65666;44.498;0.166;2023-04-25T20:30:05;6.93;;;4.73;;
76735;SDS011;65666;44.498;0.166;2023-04-25T20:35:37;9.67;;;5.53;;
76735;SDS011;65666;44.498;0.166;2023-04-25T20:41:09;7.90;;;5.30;;
76735;SDS011;65666;44.498;0.166;2023-04-25T20:46:42;6.93;;;4.53;;
76735;SDS011;65666;44.498;0.166;2023-04-25T20:52:14;9.27;;;4.97;;
76735;SDS011;65666;44.498;0.166;2023-04-25T20:57:47;8.33;;;4.90;;
76735;SDS011;65666;44.498;0.166;2023-04-25T21:03:20;8.03;;;5.43;;
76735;SDS011;65666;44.498;0.166;2023-04-25T21:08:53;7.63;;;4.50;;
76735;SDS011;65666;44.498;0.166;2023-04-25T21:14:26;6.80;;;4.50;;
76735;SDS011;65666;44.498;0.166;2023-04-25T21:19:59;7.47;;;4.53;;
76735;SDS011;65666;44.498;0.166;2023-04-25T21:25:31;5.37;;;3.77;;
76735;SDS011;65666;44.498;0.166;2023-04-25T21:31:04;6.63;;;4.10;;
76735;SDS011;65666;44.498;0.166;2023-04-25T21:36:37;9.43;;;5.60;;
76735;SDS011;65666;44.498;0.166;2023-04-25T21:42:09;6.97;;;5.50;;
76735;SDS011;65666;44.498;0.166;2023-04-25T21:47:42;6.37;;;4.33;;
76735;SDS011;65666;44.498;0.166;2023-04-25T21:53:14;10.17;;;5.13;;
76735;SDS011;65666;44.498;0.166;2023-04-25T21:58:47;11.57;;;4.87;;
76735;SDS011;65666;44.498;0.166;2023-04-25T22:04:20;5.00;;;3.67;;
76735;SDS011;65666;44.498;0.166;2023-04-25T22:09:54;5.60;;;3.20;;
76735;SDS011;65666;44.498;0.166;2023-04-25T22:15:27;5.37;;;2.97;;
76735;SDS011;65666;44.498;0.166;2023-04-25T22:20:59;7.03;;;4.27;;
76735;SDS011;65666;44.498;0.166;2023-04-25T22:26:33;4.93;;;4.23;;
76735;SDS011;65666;44.498;0.166;2023-04-25T22:32:06;6.50;;;4.63;;
76735;SDS011;65666;44.498;0.166;2023-04-25T22:37:39;6.87;;;4.30;;
76735;SDS011;65666;44.498;0.166;2023-04-25T22:43:10;7.67;;;4.30;;
76735;SDS011;65666;44.498;0.166;2023-04-25T22:48:42;7.03;;;5.00;;
76735;SDS011;65666;44.498;0.166;2023-04-25T22:54:15;6.40;;;4.47;;
76735;SDS011;65666;44.498;0.166;2023-04-25T22:59:47;6.50;;;4.50;;
76735;SDS011;65666;44.498;0.166;2023-04-25T23:05:19;8.37;;;5.70;;
76735;SDS011;65666;44.498;0.166;2023-04-25T23:10:51;5.97;;;5.37;;
76735;SDS011;65666;44.498;0.166;2023-04-25T23:16:24;7.33;;;5.93;;
76735;SDS011;65666;44.498;0.166;2023-04-25T23:21:56;12.07;;;7.00;;
76735;SDS011;65666;44.498;0.166;2023-04-25T23:27:29;8.57;;;6.37;;
76735;SDS011;65666;44.498;0.166;2023-04-25T23:33:03;10.83;;;6.87;;
76735;SDS011;65666;44.498;0.166;2023-04-25T23:38:34;9.17;;;7.07;;
76735;SDS011;65666;44.498;0.166;2023-04-25T23:44:06;9.83;;;6.83;;
76735;SDS011;65666;44.498;0.166;2023-04-25T23:49:38;12.23;;;6.80;;
76735;SDS011;65666;44.498;0.166;2023-04-25T23:55:12;15.30;;;6.27;;
